Time;durP1;ratioP1;P1;durP2;ratioP2;P2;SDS_P1;SDS_P2;PMS_P1;PMS_P2;Temp;Humidity;BMP_temperature;BMP_pressure;BME280_temperature;BME280_humidity;BME280_pressure;Samples;Min_cycle;Max_cycle;Signal;HPM_P1;HPM_P2
2022/02/16 00:02:56;;;;;;;6.30;3.67;;;;;8.40;99939.00;;;;10027459;29;20313;-78
2022/02/16 00:07:59;;;;;;;6.67;4.03;;;;;8.40;99926.00;;;;10027496;29;20218;-79
2022/02/16 00:13:03;;;;;;;6.73;3.60;;;;;8.50;99932.00;;;;10016579;29;20237;-78
2022/02/16 00:18:06;;;;;;;3.23;2.90;;;;;8.50;99915.00;;;;10028680;29;20252;-78
2022/02/16 00:23:07;;;;;;;3.23;2.90;;;;;8.50;99921.00;;;;9982353;29;20289;-78
2022/02/16 00:28:10;;;;;;;4.67;3.13;;;;;8.50;99907.00;;;;9974162;29;20246;-78
2022/02/16 00:33:12;;;;;;;5.13;2.80;;;;;8.50;99891.00;;;;10019160;29;20648;-78
2022/02/16 00:38:15;;;;;;;7.67;2.80;;;;;8.50;99900.00;;;;10011151;29;20240;-77
2022/02/16 00:43:19;;;;;;;3.70;2.77;;;;;8.50;99886.00;;;;10011901;29;20205;-79
2022/02/16 00:48:21;;;;;;;4.30;3.30;;;;;8.50;99875.00;;;;10027120;29;20228;-78
2022/02/16 00:53:23;;;;;;;4.60;2.77;;;;;8.50;99884.00;;;;10041874;29;20201;-78
2022/02/16 00:58:25;;;;;;;3.63;3.10;;;;;8.50;99875.00;;;;10021365;29;20220;-77
2022/02/16 01:03:27;;;;;;;2.70;2.10;;;;;8.50;99864.00;;;;9989292;29;20649;-77
2022/02/16 01:08:30;;;;;;;3.00;2.37;;;;;8.50;99851.00;;;;10004199;29;20205;-78
2022/02/16 01:13:34;;;;;;;3.20;2.23;;;;;8.50;99848.00;;;;10006402;29;20677;-78
2022/02/16 01:18:36;;;;;;;5.67;2.10;;;;;8.50;99838.00;;;;10026844;29;20212;-78
2022/02/16 01:23:40;;;;;;;3.50;2.17;;;;;8.50;99827.00;;;;10018269;29;20225;-78
2022/02/16 01:28:49;;;;;;;3.37;1.90;;;;;8.50;99829.00;;;;10011473;29;20197;-79
2022/02/16 01:33:51;;;;;;;2.03;1.80;;;;;8.50;99819.00;;;;10009570;29;20197;-78
2022/02/16 01:38:54;;;;;;;4.97;1.70;;;;;8.60;99829.00;;;;10016844;29;20213;-78
2022/02/16 01:43:59;;;;;;;3.37;1.90;;;;;8.60;99808.00;;;;10032218;29;20285;-79
2022/02/16 01:49:03;;;;;;;2.80;1.80;;;;;8.60;99802.00;;;;10011000;29;20595;-79
2022/02/16 01:54:09;;;;;;;3.40;1.67;;;;;8.60;99800.00;;;;9994371;29;20210;-78
2022/02/16 01:59:21;;;;;;;1.70;1.60;;;;;8.60;99784.00;;;;10009381;29;20214;-78
2022/02/16 02:05:01;;;;;;;2.07;1.87;;;;;8.60;99777.00;;;;10014767;29;20334;-78
2022/02/16 02:10:07;;;;;;;2.27;2.07;;;;;8.70;99768.00;;;;10037679;29;20278;-79
2022/02/16 02:15:10;;;;;;;4.07;2.20;;;;;8.70;99748.00;;;;10031418;29;20221;-79
2022/02/16 02:20:27;;;;;;;4.37;2.40;;;;;8.70;99724.00;;;;10015687;29;20194;-79
2022/02/16 02:25:52;;;;;;;2.27;2.07;;;;;8.70;99723.00;;;;10008419;29;20209;-79
2022/02/16 02:30:55;;;;;;;2.73;2.10;;;;;8.80;99708.00;;;;10007496;29;20617;-78
2022/02/16 02:36:00;;;;;;;4.67;2.27;;;;;8.80;99702.00;;;;9992526;29;20213;-78
2022/02/16 02:41:04;;;;;;;4.83;2.80;;;;;8.80;99699.00;;;;9992646;29;20204;-78
2022/02/16 02:46:09;;;;;;;4.57;3.60;;;;;8.80;99690.00;;;;10021432;29;20197;-78
2022/02/16 02:51:21;;;;;;;4.30;3.30;;;;;8.80;99674.00;;;;10016379;29;20229;-78
2022/02/16 02:56:24;;;;;;;5.57;4.40;;;;;8.80;99659.00;;;;10029468;29;20213;-79
2022/02/16 03:01:26;;;;;;;5.97;4.70;;;;;8.80;99653.00;;;;10044920;29;20213;-79
2022/02/16 03:06:28;;;;;;;8.03;6.00;;;;;8.80;99650.00;;;;9981678;29;20206;-79
2022/02/16 03:11:31;;;;;;;10.97;7.70;;;;;8.80;99638.00;;;;10006120;29;20202;-78
2022/02/16 03:16:33;;;;;;;8.63;6.97;;;;;8.80;99632.00;;;;10040835;29;20692;-79
2022/02/16 03:21:36;;;;;;;7.67;6.43;;;;;8.80;99619.00;;;;10030123;29;20235;-78
2022/02/16 03:26:38;;;;;;;6.60;5.70;;;;;8.70;99610.00;;;;10027573;29;20267;-78
2022/02/16 03:31:42;;;;;;;5.80;4.73;;;;;8.70;99610.00;;;;9998478;29;20209;-78
2022/02/16 03:36:44;;;;;;;4.03;3.47;;;;;8.70;99604.00;;;;10028596;29;20221;-78
2022/02/16 03:41:49;;;;;;;3.53;3.20;;;;;8.70;99597.00;;;;10011779;29;20205;-80
2022/02/16 03:46:51;;;;;;;3.47;2.80;;;;;8.70;99580.00;;;;10000609;29;20193;-79
2022/02/16 03:51:55;;;;;;;2.83;2.33;;;;;8.80;99583.00;;;;10028767;29;20200;-78
2022/02/16 03:56:57;;;;;;;2.63;1.80;;;;;8.80;99576.00;;;;10007178;29;20213;-78
2022/02/16 04:02:01;;;;;;;1.97;1.50;;;;;8.80;99578.00;;;;9989435;29;20217;-79
2022/02/16 04:07:04;;;;;;;3.37;1.77;;;;;8.80;99561.00;;;;9989673;29;20189;-79
2022/02/16 04:12:06;;;;;;;2.70;1.93;;;;;8.80;99550.00;;;;10005422;29;20205;-78
2022/02/16 04:17:08;;;;;;;3.00;2.30;;;;;8.90;99541.00;;;;10042751;29;20213;-79
2022/02/16 04:22:14;;;;;;;3.10;2.70;;;;;8.90;99539.00;;;;10012867;29;20221;-79
2022/02/16 04:27:17;;;;;;;2.97;2.67;;;;;8.90;99525.00;;;;10027248;29;20292;-79
2022/02/16 04:32:19;;;;;;;3.60;3.30;;;;;8.90;99515.00;;;;10026875;29;20211;-79
2022/02/16 04:37:21;;;;;;;3.40;3.10;;;;;8.90;99507.00;;;;10023438;29;20212;-79
2022/02/16 04:42:25;;;;;;;3.67;2.73;;;;;8.90;99490.00;;;;10011478;29;20556;-79
2022/02/16 04:47:27;;;;;;;3.27;2.70;;;;;8.90;99487.00;;;;10020164;29;20209;-79
2022/02/16 04:52:35;;;;;;;3.43;2.67;;;;;8.90;99493.00;;;;9974266;29;20206;-79
2022/02/16 04:58:00;;;;;;;2.93;2.63;;;;;8.90;99480.00;;;;10035535;29;20221;-79
2022/02/16 05:03:02;;;;;;;2.57;2.10;;;;;8.90;99482.00;;;;10033813;29;20619;-78
2022/02/16 05:08:07;;;;;;;2.40;2.20;;;;;9.00;99475.00;;;;10033968;29;20201;-79
2022/02/16 05:13:09;;;;;;;2.60;1.80;;;;;9.00;99468.00;;;;10054105;29;20207;-79
2022/02/16 05:18:11;;;;;;;2.23;2.03;;;;;9.00;99459.00;;;;10018952;29;20217;-78
2022/02/16 05:23:24;;;;;;;1.97;1.77;;;;;9.00;99447.00;;;;10019587;29;20232;-79
2022/02/16 05:28:34;;;;;;;1.23;1.13;;;;;9.00;99434.00;;;;10019656;29;20204;-78
2022/02/16 05:33:37;;;;;;;1.23;1.10;;;;;9.00;99435.00;;;;10000561;29;20232;-79
2022/02/16 05:38:42;;;;;;;2.67;1.30;;;;;9.00;99433.00;;;;10009917;29;20220;-79
2022/02/16 05:43:45;;;;;;;2.13;1.50;;;;;9.10;99421.00;;;;9983548;29;20209;-79
2022/02/16 05:48:50;;;;;;;1.40;1.30;;;;;9.10;99389.00;;;;10033570;29;20197;-79
2022/02/16 05:53:52;;;;;;;1.83;1.40;;;;;9.10;99372.00;;;;10013635;29;20709;-79
2022/02/16 05:58:58;;;;;;;1.00;0.90;;;;;9.20;99372.00;;;;10019328;29;20248;-79
2022/02/16 06:04:00;;;;;;;1.40;1.30;;;;;9.20;99364.00;;;;10009322;29;20197;-78
2022/02/16 06:09:05;;;;;;;1.60;1.40;;;;;9.20;99343.00;;;;10029621;29;20747;-78
2022/02/16 06:14:08;;;;;;;1.63;1.07;;;;;9.30;99330.00;;;;10005487;29;20201;-78
2022/02/16 06:19:12;;;;;;;1.77;1.23;;;;;9.30;99326.00;;;;10031627;29;20584;-79
2022/02/16 06:24:14;;;;;;;3.80;1.77;;;;;9.30;99314.00;;;;10015837;29;20232;-79
2022/02/16 06:29:16;;;;;;;2.17;1.70;;;;;9.50;99312.00;;;;10030628;29;20217;-78
2022/02/16 06:34:38;;;;;;;2.10;1.70;;;;;9.60;99313.00;;;;10031539;29;20252;-78
2022/02/16 06:39:46;;;;;;;1.93;1.20;;;;;9.70;99290.00;;;;9996088;29;20210;-78
2022/02/16 06:44:49;;;;;;;2.40;2.17;;;;;9.70;99277.00;;;;10019442;29;20201;-78
2022/02/16 06:49:55;;;;;;;1.70;1.60;;;;;9.80;99289.00;;;;10028269;29;20193;-78
2022/02/16 06:54:57;;;;;;;3.47;1.90;;;;;9.90;99291.00;;;;10030487;29;20212;-78
2022/02/16 07:00:00;;;;;;;2.23;1.40;;;;;9.90;99314.00;;;;10000230;29;20225;-79
2022/02/16 07:05:04;;;;;;;2.90;1.47;;;;;10.00;99285.00;;;;10031202;29;20201;-78
2022/02/16 07:10:09;;;;;;;1.50;1.40;;;;;10.00;99300.00;;;;10007271;29;20328;-77
2022/02/16 07:15:12;;;;;;;1.93;1.50;;;;;10.10;99323.00;;;;10010578;29;20222;-78
2022/02/16 07:20:21;;;;;;;2.47;1.70;;;;;10.20;99347.00;;;;10019181;29;20197;-78
2022/02/16 07:25:25;;;;;;;1.73;1.50;;;;;10.20;99346.00;;;;10008552;29;20622;-78
2022/02/16 07:30:50;;;;;;;3.13;1.70;;;;;10.30;99353.00;;;;9982558;29;20201;-77
2022/02/16 07:35:52;;;;;;;2.80;1.60;;;;;10.40;99341.00;;;;10028569;29;20245;-78
2022/02/16 07:40:59;;;;;;;2.97;1.80;;;;;10.40;99337.00;;;;10027629;29;20197;-78
2022/02/16 07:46:07;;;;;;;1.77;1.67;;;;;10.40;99334.00;;;;10010300;29;20657;-77
2022/02/16 07:51:14;;;;;;;1.90;1.80;;;;;10.40;99330.00;;;;10028877;29;20200;-77
2022/02/16 07:56:42;;;;;;;2.07;1.73;;;;;10.50;99338.00;;;;10005180;29;20217;-77
2022/02/16 08:01:44;;;;;;;1.90;1.20;;;;;10.60;99311.00;;;;10003573;29;20211;-77
2022/02/16 08:06:48;;;;;;;1.60;1.50;;;;;10.80;99321.00;;;;10058465;29;20672;-77
2022/02/16 08:11:50;;;;;;;1.83;1.50;;;;;10.90;99354.00;;;;10017608;29;20211;-77
2022/02/16 08:16:55;;;;;;;2.43;1.27;;;;;10.90;99367.00;;;;10081884;29;20217;-77
2022/02/16 08:21:58;;;;;;;2.17;0.97;;;;;11.00;99374.00;;;;10046219;29;20225;-77
2022/02/16 08:27:03;;;;;;;2.57;1.23;;;;;11.00;99392.00;;;;10027175;29;20197;-77
2022/02/16 08:32:10;;;;;;;2.03;1.43;;;;;11.10;99395.00;;;;10011792;29;20235;-78
2022/02/16 08:37:33;;;;;;;1.60;1.27;;;;;11.20;99410.00;;;;10032947;29;20225;-78
2022/02/16 08:42:35;;;;;;;1.63;1.33;;;;;11.30;99424.00;;;;10016038;29;20660;-79
2022/02/16 08:47:37;;;;;;;4.63;1.43;;;;;11.20;99425.00;;;;10019598;29;20197;-79
2022/02/16 08:52:39;;;;;;;1.30;1.20;;;;;11.40;99441.00;;;;10032432;29;20860;-78
2022/02/16 08:57:42;;;;;;;1.10;1.00;;;;;11.50;99445.00;;;;10044049;29;20685;-78
2022/02/16 09:02:44;;;;;;;0.80;0.80;;;;;11.60;99442.00;;;;10046511;29;20196;-78
2022/02/16 09:07:46;;;;;;;0.70;0.70;;;;;11.60;99442.00;;;;10045021;29;20230;-78
2022/02/16 09:12:48;;;;;;;2.90;0.93;;;;;11.70;99447.00;;;;10046233;29;20212;-79
2022/02/16 09:17:50;;;;;;;1.53;1.40;;;;;11.80;99443.00;;;;10037873;29;20201;-79
2022/02/16 09:22:52;;;;;;;0.80;0.80;;;;;11.60;99449.00;;;;10051019;29;20224;-79
2022/02/16 09:27:54;;;;;;;3.00;1.10;;;;;11.60;99456.00;;;;10021931;29;20192;-79
2022/02/16 09:33:03;;;;;;;1.43;1.27;;;;;11.80;99467.00;;;;10016566;29;20232;-78
2022/02/16 09:38:06;;;;;;;3.43;1.37;;;;;11.70;99446.00;;;;10021832;29;20209;-78
2022/02/16 09:43:07;;;;;;;1.47;1.20;;;;;11.70;99432.00;;;;10023032;29;20290;-79
2022/02/16 09:48:09;;;;;;;2.07;1.57;;;;;11.90;99435.00;;;;10009535;29;20214;-78
2022/02/16 09:53:12;;;;;;;3.90;1.70;;;;;12.10;99435.00;;;;10022386;29;20301;-78
2022/02/16 09:58:15;;;;;;;2.00;1.57;;;;;12.20;99427.00;;;;10033219;29;20268;-78
2022/02/16 10:03:17;;;;;;;5.00;2.10;;;;;12.40;99435.00;;;;10046117;29;20206;-78
2022/02/16 10:08:46;;;;;;;5.37;2.43;;;;;12.50;99440.00;;;;10046976;29;20201;-78
2022/02/16 10:13:48;;;;;;;6.37;2.00;;;;;12.60;99422.00;;;;10026103;29;20212;-79
2022/02/16 10:19:00;;;;;;;9.00;2.93;;;;;12.70;99406.00;;;;10054372;29;20216;-78
2022/02/16 10:24:02;;;;;;;8.33;2.17;;;;;12.70;99405.00;;;;10025559;29;20292;-78
2022/02/16 10:29:18;;;;;;;9.67;2.30;;;;;12.80;99385.00;;;;10016679;29;20190;-77
2022/02/16 10:34:20;;;;;;;7.60;1.90;;;;;13.00;99391.00;;;;10031939;29;20617;-77
2022/02/16 10:39:26;;;;;;;9.77;1.90;;;;;13.00;99393.00;;;;10015351;29;20252;-78
2022/02/16 10:44:33;;;;;;;8.97;2.30;;;;;13.30;99398.00;;;;10005282;29;20619;-77
2022/02/16 10:49:37;;;;;;;8.43;2.03;;;;;13.80;99404.00;;;;10050826;29;20251;-78
2022/02/16 10:54:59;;;;;;;10.37;1.80;;;;;13.90;99410.00;;;;10000970;29;20205;-77
2022/02/16 11:00:02;;;;;;;7.93;2.00;;;;;13.90;99413.00;;;;10029090;29;20222;-78
2022/02/16 11:05:05;;;;;;;7.87;2.73;;;;;13.80;99428.00;;;;10007043;29;20206;-77
2022/02/16 11:10:08;;;;;;;11.80;2.40;;;;;13.60;99421.00;;;;10028097;29;20249;-77
2022/02/16 11:15:10;;;;;;;9.23;2.57;;;;;13.40;99436.00;;;;10040040;29;20237;-77
2022/02/16 11:20:27;;;;;;;7.30;3.47;;;;;13.00;99433.00;;;;10013855;29;20248;-76
2022/02/16 11:25:35;;;;;;;7.90;3.10;;;;;12.90;99432.00;;;;10039495;29;20319;-77
2022/02/16 11:30:48;;;;;;;10.90;3.80;;;;;13.10;99431.00;;;;10036428;29;20201;-77
2022/02/16 11:36:00;;;;;;;15.23;3.60;;;;;13.30;99404.00;;;;9996829;29;20207;-77
2022/02/16 11:41:18;;;;;;;12.63;3.30;;;;;13.20;99385.00;;;;10026605;29;20308;-77
2022/02/16 11:46:44;;;;;;;16.47;3.77;;;;;13.70;99392.00;;;;10030831;29;20208;-77
2022/02/16 11:51:46;;;;;;;15.00;3.63;;;;;13.90;99408.00;;;;10022679;29;20291;-77
2022/02/16 11:56:48;;;;;;;17.03;4.57;;;;;14.70;99398.00;;;;10028214;29;20404;-77
2022/02/16 12:02:09;;;;;;;15.40;4.13;;;;;15.20;99390.00;;;;10037011;29;20556;-77
2022/02/16 12:07:26;;;;;;;16.83;4.87;;;;;14.50;99399.00;;;;10057046;29;20569;-77
2022/02/16 12:12:31;;;;;;;19.60;4.60;;;;;14.20;99386.00;;;;10050376;29;20203;-77
2022/02/16 12:17:41;;;;;;;18.50;4.37;;;;;14.20;99416.00;;;;10031756;29;20228;-76
2022/02/16 12:22:45;;;;;;;15.70;3.53;;;;;14.40;99408.00;;;;10037178;29;20235;-77
2022/02/16 12:27:47;;;;;;;19.57;3.73;;;;;13.90;99388.00;;;;10022436;29;20190;-77
2022/02/16 12:32:49;;;;;;;20.20;3.77;;;;;14.00;99383.00;;;;10010187;29;20205;-77
2022/02/16 12:37:53;;;;;;;16.77;2.80;;;;;14.60;99404.00;;;;10027624;29;20270;-76
2022/02/16 12:42:56;;;;;;;15.83;3.70;;;;;14.30;99396.00;;;;10014895;29;20201;-77
2022/02/16 12:48:00;;;;;;;12.27;3.20;;;;;14.50;99400.00;;;;10049747;29;20549;-76
2022/02/16 12:53:07;;;;;;;11.60;3.60;;;;;14.50;99373.00;;;;10052129;29;20538;-77
2022/02/16 12:58:09;;;;;;;15.63;4.67;;;;;14.60;99381.00;;;;10025129;29;20213;-77
2022/02/16 13:03:11;;;;;;;18.60;4.82;;;;;14.60;99371.00;;;;10017244;29;20208;-77
2022/02/16 13:08:15;;;;;;;16.10;3.63;;;;;14.50;99374.00;;;;10017794;29;20253;-77
2022/02/16 13:13:29;;;;;;;17.67;4.37;;;;;14.40;99362.00;;;;10066030;29;20181;-77
2022/02/16 13:18:49;;;;;;;14.35;4.13;;;;;14.60;99345.00;;;;10048706;29;20308;-78
2022/02/16 13:24:01;;;;;;;22.33;4.57;;;;;14.80;99352.00;;;;10016172;29;20239;-77
2022/02/16 13:29:06;;;;;;;21.13;5.00;;;;;15.10;99370.00;;;;10047237;29;20197;-77
2022/02/16 13:34:11;;;;;;;18.75;4.47;;;;;14.90;99400.00;;;;10032064;29;20263;-77
2022/02/16 13:39:27;;;;;;;26.13;6.20;;;;;15.30;99373.00;;;;10028344;29;20309;-76
2022/02/16 13:44:37;;;;;;;22.98;5.32;;;;;16.00;99380.00;;;;10009664;29;20291;-77
2022/02/16 13:49:55;;;;;;;20.95;6.13;;;;;16.80;99374.00;;;;10038918;29;20211;-77
2022/02/16 13:54:58;;;;;;;23.90;5.50;;;;;16.40;99368.00;;;;10038893;29;20192;-77
2022/02/16 14:00:09;;;;;;;18.30;4.88;;;;;16.30;99353.00;;;;10039212;29;20752;-77
2022/02/16 14:05:24;;;;;;;21.20;5.15;;;;;16.20;99376.00;;;;10020456;29;20199;-77
2022/02/16 14:10:43;;;;;;;21.58;5.03;;;;;16.30;99348.00;;;;10028038;29;20197;-77
2022/02/16 14:15:45;;;;;;;25.80;5.57;;;;;16.60;99338.00;;;;10060044;29;20778;-77
2022/02/16 14:20:49;;;;;;;23.70;5.57;;;;;16.60;99366.00;;;;10048242;29;20270;-77
2022/02/16 14:25:51;;;;;;;17.85;4.88;;;;;16.80;99379.00;;;;10028546;29;20193;-77
2022/02/16 14:30:53;;;;;;;18.85;4.60;;;;;15.40;99377.00;;;;10042166;29;20224;-77
2022/02/16 14:35:55;;;;;;;24.67;5.93;;;;;14.90;99348.00;;;;10029498;29;20289;-77
2022/02/16 14:40:57;;;;;;;22.42;5.65;;;;;14.90;99346.00;;;;9976832;29;20282;-77
2022/02/16 14:45:59;;;;;;;26.85;5.90;;;;;14.60;99323.00;;;;9980273;29;20278;-76
2022/02/16 14:51:05;;;;;;;23.30;5.07;;;;;14.20;99331.00;;;;10046537;29;20276;-77
2022/02/16 14:56:08;;;;;;;28.23;6.50;;;;;13.90;99318.00;;;;10013342;29;20669;-76
2022/02/16 15:01:10;;;;;;;23.20;5.77;;;;;13.60;99326.00;;;;10041217;29;20223;-77
2022/02/16 15:06:12;;;;;;;20.70;4.37;;;;;13.50;99309.00;;;;10028200;29;20205;-79
2022/02/16 15:11:14;;;;;;;20.80;4.80;;;;;13.30;99314.00;;;;10039458;29;20248;-77
2022/02/16 15:16:16;;;;;;;24.10;5.17;;;;;13.20;99327.00;;;;10082551;29;20224;-78
2022/02/16 15:21:18;;;;;;;21.33;4.67;;;;;13.10;99329.00;;;;10025106;29;20236;-77
2022/02/16 15:26:26;;;;;;;13.13;3.20;;;;;13.10;99317.00;;;;10043109;29;20197;-77
2022/02/16 15:31:28;;;;;;;19.97;4.23;;;;;13.10;99311.00;;;;10011837;29;20202;-76
2022/02/16 15:36:32;;;;;;;17.33;4.17;;;;;12.80;99311.00;;;;10028175;29;20205;-77
2022/02/16 15:41:34;;;;;;;16.70;5.00;;;;;12.50;99326.00;;;;10037727;29;20256;-78
2022/02/16 15:46:38;;;;;;;14.97;4.77;;;;;12.20;99312.00;;;;10021439;29;20201;-78
2022/02/16 15:51:40;;;;;;;16.63;4.37;;;;;12.10;99289.00;;;;10029309;29;20200;-78
2022/02/16 15:56:42;;;;;;;15.17;4.57;;;;;12.30;99288.00;;;;10032764;29;20253;-78
2022/02/16 16:01:44;;;;;;;11.97;3.90;;;;;12.40;99287.00;;;;10004702;29;20272;-78
2022/02/16 16:06:46;;;;;;;10.87;3.60;;;;;12.40;99273.00;;;;10016095;29;20200;-78
2022/02/16 16:11:48;;;;;;;7.77;2.30;;;;;12.30;99265.00;;;;10021551;29;20225;-78
2022/02/16 16:16:51;;;;;;;8.10;2.13;;;;;12.20;99258.00;;;;10026740;29;20253;-78
2022/02/16 16:21:53;;;;;;;3.03;1.40;;;;;12.20;99231.00;;;;10064318;29;20228;-78
2022/02/16 16:26:55;;;;;;;4.17;1.90;;;;;12.20;99235.00;;;;10047080;29;20213;-78
2022/02/16 16:31:57;;;;;;;3.40;1.30;;;;;12.20;99219.00;;;;10011486;29;20289;-79
2022/02/16 16:37:00;;;;;;;1.33;1.20;;;;;12.20;99245.00;;;;9992284;29;20205;-78
2022/02/16 16:42:03;;;;;;;1.70;1.07;;;;;12.20;99247.00;;;;9993578;29;20220;-78
2022/02/16 16:47:05;;;;;;;2.60;1.00;;;;;12.20;99248.00;;;;10053562;29;20196;-78
2022/02/16 16:52:08;;;;;;;2.27;1.30;;;;;12.20;99218.00;;;;10068436;29;20204;-78
2022/02/16 16:57:10;;;;;;;3.23;1.47;;;;;12.10;99218.00;;;;10042233;29;20251;-78
2022/02/16 17:02:12;;;;;;;2.90;1.30;;;;;12.10;99217.00;;;;10043858;29;20204;-79
2022/02/16 17:07:14;;;;;;;4.90;1.20;;;;;12.10;99214.00;;;;10035366;29;20193;-78
2022/02/16 17:12:16;;;;;;;2.87;1.30;;;;;12.10;99216.00;;;;10046810;29;20215;-78
2022/02/16 17:17:18;;;;;;;3.27;1.10;;;;;12.00;99225.00;;;;9997761;29;20254;-78
2022/02/16 17:22:21;;;;;;;1.10;0.90;;;;;12.10;99203.00;;;;9995339;29;20247;-78
2022/02/16 17:27:23;;;;;;;3.60;1.33;;;;;12.10;99175.00;;;;10022259;29;20650;-78
2022/02/16 17:32:25;;;;;;;3.37;1.53;;;;;12.10;99169.00;;;;10071655;29;20201;-77
2022/02/16 17:37:27;;;;;;;5.03;1.80;;;;;12.20;99192.00;;;;10027325;29;20220;-77
2022/02/16 17:42:29;;;;;;;2.70;1.87;;;;;12.30;99215.00;;;;10029059;29;20256;-77
2022/02/16 17:47:34;;;;;;;3.60;2.00;;;;;12.40;99186.00;;;;10069664;29;20263;-77
2022/02/16 17:52:38;;;;;;;6.00;2.13;;;;;12.50;99204.00;;;;10018641;29;20664;-77
2022/02/16 17:57:40;;;;;;;4.50;2.30;;;;;12.60;99201.00;;;;10040759;29;20221;-77
2022/02/16 18:02:44;;;;;;;2.30;2.10;;;;;12.60;99207.00;;;;10018169;29;20193;-77
2022/02/16 18:07:49;;;;;;;5.80;2.77;;;;;12.70;99223.00;;;;9984305;29;20718;-77
2022/02/16 18:12:51;;;;;;;5.90;2.80;;;;;12.60;99224.00;;;;10019129;29;20204;-77
2022/02/16 18:17:54;;;;;;;6.70;3.20;;;;;12.50;99220.00;;;;10027541;29;20209;-77
2022/02/16 18:22:57;;;;;;;6.90;3.10;;;;;12.40;99218.00;;;;9992958;29;20236;-77
2022/02/16 18:27:58;;;;;;;6.43;3.57;;;;;12.30;99236.00;;;;9994116;29;20570;-77
2022/02/16 18:33:00;;;;;;;5.30;3.00;;;;;12.30;99221.00;;;;9994112;29;20225;-78
2022/02/16 18:38:02;;;;;;;5.37;3.57;;;;;12.30;99155.00;;;;9993061;29;20217;-78
2022/02/16 18:43:05;;;;;;;5.30;3.30;;;;;12.30;99131.00;;;;10028490;29;20213;-78
2022/02/16 18:48:07;;;;;;;3.63;2.13;;;;;12.30;99134.00;;;;10031170;29;20197;-78
2022/02/16 18:53:09;;;;;;;4.83;2.10;;;;;12.30;99138.00;;;;10016309;29;20273;-77
2022/02/16 18:58:11;;;;;;;2.87;1.73;;;;;12.30;99147.00;;;;10016695;29;20221;-77
2022/02/16 19:03:14;;;;;;;8.50;2.47;;;;;12.30;99138.00;;;;10015029;29;20292;-77
2022/02/16 19:08:16;;;;;;;4.17;1.77;;;;;12.30;99136.00;;;;10014825;29;20248;-78
2022/02/16 19:13:17;;;;;;;4.23;1.50;;;;;12.40;99147.00;;;;10029210;29;20201;-78
2022/02/16 19:18:21;;;;;;;3.50;1.70;;;;;12.50;99147.00;;;;10015008;29;20213;-77
2022/02/16 19:23:30;;;;;;;3.80;1.43;;;;;12.50;99124.00;;;;10015275;29;20228;-77
2022/02/16 19:28:34;;;;;;;2.03;1.00;;;;;12.50;99093.00;;;;10029950;29;20193;-77
2022/02/16 19:33:36;;;;;;;2.27;1.27;;;;;12.60;99092.00;;;;10043978;29;20564;-77
2022/02/16 19:38:39;;;;;;;1.73;0.83;;;;;12.60;99089.00;;;;10013442;29;20261;-77
2022/02/16 19:43:43;;;;;;;0.63;0.63;;;;;12.60;99062.00;;;;10027896;29;20679;-76
2022/02/16 19:48:45;;;;;;;1.13;0.90;;;;;12.60;99015.00;;;;10012667;29;20257;-76
2022/02/16 19:53:51;;;;;;;2.30;1.07;;;;;12.70;99024.00;;;;10013484;29;20291;-76
2022/02/16 19:58:53;;;;;;;3.53;1.30;;;;;12.70;99020.00;;;;10027536;29;20575;-76
2022/02/16 20:03:55;;;;;;;1.83;0.90;;;;;12.70;99005.00;;;;10012606;29;20215;-76
2022/02/16 20:08:57;;;;;;;2.70;1.07;;;;;12.60;99036.00;;;;10057501;29;20284;-77
2022/02/16 20:13:59;;;;;;;1.60;1.00;;;;;12.60;99065.00;;;;10012072;29;20196;-77
2022/02/16 20:19:02;;;;;;;2.70;1.00;;;;;12.60;99080.00;;;;10027207;29;20615;-76
2022/02/16 20:24:06;;;;;;;2.53;1.13;;;;;12.60;99105.00;;;;10045069;29;20311;-77
2022/02/16 20:29:08;;;;;;;2.33;1.20;;;;;12.50;99123.00;;;;10039792;29;20200;-77
2022/02/16 20:34:12;;;;;;;2.23;1.30;;;;;12.40;99119.00;;;;10018071;29;20219;-77
2022/02/16 20:39:21;;;;;;;4.03;1.40;;;;;12.30;99125.00;;;;10002473;29;20304;-77
2022/02/16 20:44:23;;;;;;;2.83;1.53;;;;;12.30;99119.00;;;;10001445;29;20292;-77
2022/02/16 20:49:27;;;;;;;2.20;1.53;;;;;12.30;99112.00;;;;10001258;29;20194;-77
2022/02/16 20:54:29;;;;;;;4.50;1.63;;;;;12.20;99129.00;;;;9971774;29;20700;-77
2022/02/16 20:59:31;;;;;;;2.73;1.80;;;;;12.20;99144.00;;;;9996522;29;20279;-77
2022/02/16 21:04:36;;;;;;;2.87;1.53;;;;;12.30;99146.00;;;;10041185;29;20253;-77
2022/02/16 21:09:38;;;;;;;1.97;1.40;;;;;12.30;99147.00;;;;10009087;29;20564;-77
2022/02/16 21:14:40;;;;;;;1.57;1.40;;;;;12.30;99123.00;;;;10055226;29;20197;-77
2022/02/16 21:19:43;;;;;;;1.50;1.20;;;;;12.30;99159.00;;;;10070251;29;20221;-77
2022/02/16 21:24:45;;;;;;;1.20;1.10;;;;;12.30;99181.00;;;;10078076;29;20270;-78
2022/02/16 21:29:50;;;;;;;2.90;1.03;;;;;12.30;99184.00;;;;10093734;29;20224;-77
2022/02/16 21:34:52;;;;;;;3.40;0.60;;;;;12.30;99172.00;;;;10065022;29;20220;-77
2022/02/16 21:39:56;;;;;;;5.77;0.83;;;;;12.30;99187.00;;;;10017459;29;20217;-77
2022/02/16 21:44:57;;;;;;;3.13;0.73;;;;;12.30;99163.00;;;;10032558;29;20197;-77
2022/02/16 21:50:01;;;;;;;2.53;0.60;;;;;12.30;99182.00;;;;10026539;29;20624;-77
2022/02/16 21:55:05;;;;;;;4.40;0.80;;;;;12.30;99176.00;;;;10025729;29;20258;-77
2022/02/16 22:00:10;;;;;;;2.03;0.70;;;;;12.20;99165.00;;;;10017902;29;20217;-77
2022/02/16 22:05:16;;;;;;;2.97;0.80;;;;;12.20;99177.00;;;;10032075;29;20209;-77
2022/02/16 22:10:19;;;;;;;3.53;0.97;;;;;12.20;99184.00;;;;10018162;29;20197;-77
2022/02/16 22:15:24;;;;;;;1.73;0.80;;;;;12.20;99180.00;;;;10017613;29;20205;-77
2022/02/16 22:20:27;;;;;;;2.70;0.90;;;;;12.30;99179.00;;;;10031512;29;20261;-77
2022/02/16 22:25:29;;;;;;;4.73;1.10;;;;;12.30;99185.00;;;;10031212;29;20212;-77
2022/02/16 22:30:31;;;;;;;4.07;1.43;;;;;12.40;99166.00;;;;10008003;29;20213;-77
2022/02/16 22:35:34;;;;;;;3.27;1.20;;;;;12.50;99147.00;;;;10024716;29;20268;-77
2022/02/16 22:40:36;;;;;;;3.23;0.83;;;;;12.60;99176.00;;;;10030437;29;20303;-77
2022/02/16 22:45:38;;;;;;;2.93;0.70;;;;;12.70;99166.00;;;;10030434;29;20205;-76
2022/02/16 22:50:40;;;;;;;2.07;0.70;;;;;12.70;99178.00;;;;10043932;29;20197;-77
2022/02/16 22:55:42;;;;;;;1.17;0.73;;;;;12.70;99150.00;;;;10030131;29;20237;-77
2022/02/16 23:00:47;;;;;;;2.37;0.97;;;;;12.70;99157.00;;;;10059900;29;20319;-77
2022/02/16 23:11:31;;;;;;;3.60;1.07;;;;;12.70;99161.00;;;;9950452;29;20206;-77
2022/02/16 23:16:33;;;;;;;2.33;0.90;;;;;12.70;99172.00;;;;10012443;29;20248;-77
2022/02/16 23:21:35;;;;;;;2.83;0.93;;;;;12.70;99168.00;;;;10097147;29;20327;-76
2022/02/16 23:26:38;;;;;;;1.00;0.70;;;;;12.70;99174.00;;;;10066841;29;20201;-76
2022/02/16 23:31:40;;;;;;;2.00;1.20;;;;;12.70;99180.00;;;;10039095;29;20554;-76
2022/02/16 23:36:42;;;;;;;4.70;1.20;;;;;12.60;99161.00;;;;10028666;29;20924;-76
2022/02/16 23:41:43;;;;;;;8.93;1.70;;;;;12.60;99147.00;;;;10043209;29;20258;-76
2022/02/16 23:46:45;;;;;;;8.73;2.43;;;;;12.60;99157.00;;;;10028265;29;20204;-77
2022/02/16 23:51:48;;;;;;;6.07;1.20;;;;;12.60;99161.00;;;;10027975;29;20197;-76
2022/02/16 23:56:50;;;;;;;5.13;1.53;;;;;12.60;99183.00;;;;10042419;29;20240;-76
